Hlavní strana
METAR-TAF:

METAR-TAF

Letiště :

Russellville Regional Airport

Russellville, Arkansas, Spojené státy americké

zeměpisná šířka: 35-15-32N, zeměpisná délka: 093-05-36W, výška: 123 m

Aktuální stav počasí

Zpráva byla vytvořena před 7 minutami, v 00:53 UTC
Severoseverozápadní vítr 8 kt
Teplota 9°C
Vlhkost vzduchu 61%
Tlak 1016 hPa
Viditelnost: 16.1 km
Zataženo ve výšce 3700 ft

METAR: KRUE 260053Z AUTO 34008KT 10SM OVC037 09/02 A2999 RMK AO2 SLP151 T00890022

Čas: 19:00 (01:00 UTC)


TAF: chybějící

Stav a předpovědi počasí z více než 4 000 letišť (zprávy METAR a TAF).

Červené a žluté tečky na mapě představují dostupné meteorologické stanice.

Když kurzor umístíte na tečku, zobrazí se název stanice.

Pak kliknutím zobrazíte stav a předpověď počasí.

Chcete-li změnit mapu, kliknutím na zelené tlačítko se znaménkem +mapu přiblížíte, kliknutím na zelené tlačítko se znaménkem – mapu oddálíte a kliknutím na zelené šipky přejdete na sousední mapy.


METAR-TAF: